Time;durP1;ratioP1;P1;durP2;ratioP2;P2;SDS_P1;SDS_P2;PMS_P1;PMS_P2;Temp;Humidity;BMP_temperature;BMP_pressure;BME280_temperature;BME280_humidity;BME280_pressure;Samples;Min_cycle;Max_cycle;Signal;HPM_P1;HPM_P2
2023/09/01 00:07:04;;;;;;;;;;;14.80;99.90;;;;;;21256181;27;20400;-77
2023/09/01 00:17:04;;;;;;;;;;;14.80;99.90;;;;;;21256141;27;19956;-76
2023/09/01 00:27:05;;;;;;;;;;;14.50;99.90;;;;;;21255247;27;19916;-77
2023/09/01 00:37:05;;;;;;;;;;;14.70;99.90;;;;;;21250536;27;20175;-76
2023/09/01 00:47:06;;;;;;;;;;;14.80;99.90;;;;;;21321424;27;19920;-76
2023/09/01 00:57:07;;;;;;;;;;;14.50;99.90;;;;;;21296953;27;20167;-77
2023/09/01 01:07:08;;;;;;;;;;;14.70;99.90;;;;;;21252180;27;19922;-77
2023/09/01 01:17:09;;;;;;;;;;;14.90;99.90;;;;;;21248324;27;19976;-76
2023/09/01 01:27:09;;;;;;;;;;;15.00;99.90;;;;;;21230840;27;19922;-78
2023/09/01 01:37:14;;;;;;;;;;;14.80;99.90;;;;;;21230745;27;20381;-77
2023/09/01 01:47:15;;;;;;;;;;;14.80;99.90;;;;;;21248742;27;20043;-77
2023/09/01 01:57:16;;;;;;;;;;;14.80;99.90;;;;;;21230532;27;19950;-77
2023/09/01 02:07:17;;;;;;;;;;;14.80;99.90;;;;;;21228232;27;20373;-76
2023/09/01 02:17:17;;;;;;;;;;;14.80;99.90;;;;;;21246657;27;19980;-77
2023/09/01 02:27:18;;;;;;;;;;;14.70;99.90;;;;;;21245041;27;19911;-77
2023/09/01 02:37:19;;;;;;;;;;;14.60;99.90;;;;;;21243116;27;19919;-77
2023/09/01 02:47:20;;;;;;;;;;;14.70;99.90;;;;;;21242680;27;19912;-77
2023/09/01 02:57:21;;;;;;;;;;;14.50;99.90;;;;;;21224265;27;20377;-77
2023/09/01 03:07:22;;;;;;;;;;;14.50;99.90;;;;;;21223614;27;19926;-77
2023/09/01 03:17:22;;;;;;;;;;;14.40;99.90;;;;;;21204979;27;19911;-77
2023/09/01 03:27:23;;;;;;;;;;;14.20;99.90;;;;;;21225003;27;19911;-78
2023/09/01 03:37:24;;;;;;;;;;;14.00;99.90;;;;;;21309588;27;19998;-77
2023/09/01 03:47:25;;;;;;;;;;;14.00;99.90;;;;;;21326213;27;19911;-77
2023/09/01 03:57:26;;;;;;;;;;;13.70;99.90;;;;;;21327696;27;19911;-77
2023/09/01 04:07:26;;;;;;;;;;;13.50;99.90;;;;;;21310052;27;19951;-76
2023/09/01 04:17:27;;;;;;;;;;;13.40;99.90;;;;;;21293036;27;19915;-77
2023/09/01 04:27:28;;;;;;;;;;;13.30;99.90;;;;;;21309440;27;19911;-77
2023/09/01 04:37:29;;;;;;;;;;;13.20;99.90;;;;;;21318207;22;20006;-83
2023/09/01 04:47:32;;;;;;;;;;;13.20;99.90;;;;;;21225399;27;19915;-82
2023/09/01 04:57:32;;;;;;;;;;;13.20;99.90;;;;;;21267400;27;19912;-83
2023/09/01 05:07:35;;;;;;;;;;;13.10;99.90;;;;;;21267458;27;19911;-82
2023/09/01 05:17:35;;;;;;;;;;;13.00;99.90;;;;;;21276853;27;19911;-81
2023/09/01 05:27:36;;;;;;;;;;;13.10;99.90;;;;;;21249513;27;20028;-81
2023/09/01 05:37:37;;;;;;;;;;;13.10;99.90;;;;;;21239090;27;19968;-82
2023/09/01 05:47:38;;;;;;;;;;;13.40;99.90;;;;;;21232857;27;19966;-82
2023/09/01 05:57:38;;;;;;;;;;;13.50;99.90;;;;;;21214759;27;19916;-82
2023/09/01 06:07:39;;;;;;;;;;;13.90;99.90;;;;;;21231859;27;19958;-81
2023/09/01 06:17:40;;;;;;;;;;;14.30;99.90;;;;;;21231569;27;20008;-81
2023/09/01 06:27:40;;;;;;;;;;;14.50;99.90;;;;;;21260834;27;19983;-82
2023/09/01 06:37:41;;;;;;;;;;;15.10;99.90;;;;;;21298803;27;19979;-82
2023/09/01 06:47:42;;;;;;;;;;;15.40;99.90;;;;;;21299587;27;19911;-82
2023/09/01 06:57:42;;;;;;;;;;;15.40;99.90;;;;;;21317472;27;20026;-82
2023/09/01 07:07:43;;;;;;;;;;;15.90;99.90;;;;;;21338151;27;20330;-82
2023/09/01 07:17:44;;;;;;;;;;;17.40;99.90;;;;;;21319568;27;19915;-82
2023/09/01 07:27:45;;;;;;;;;;;17.60;99.90;;;;;;21338226;27;19918;-82
2023/09/01 07:37:46;;;;;;;;;;;18.10;99.90;;;;;;21293830;27;19915;-82
2023/09/01 07:47:47;;;;;;;;;;;19.20;99.90;;;;;;21338179;27;19934;-82
2023/09/01 07:57:47;;;;;;;;;;;19.40;99.90;;;;;;21317370;27;20065;-82
2023/09/01 08:07:49;;;;;;;;;;;19.00;99.90;;;;;;21260290;27;19933;-82
2023/09/01 08:17:52;;;;;;;;;;;19.00;99.90;;;;;;21274781;27;19923;-81
2023/09/01 08:27:52;;;;;;;;;;;19.60;99.90;;;;;;21279160;27;19911;-82
2023/09/01 08:37:53;;;;;;;;;;;19.40;99.90;;;;;;21274287;27;20618;-81
2023/09/01 08:47:54;;;;;;;;;;;20.60;99.90;;;;;;21266247;27;19995;-82
2023/09/01 08:57:54;;;;;;;;;;;22.20;99.90;;;;;;21227991;27;19915;-82
2023/09/01 09:07:59;;;;;;;;;;;23.60;99.90;;;;;;21248479;27;19912;-82
2023/09/01 09:18:00;;;;;;;;;;;24.20;99.90;;;;;;21245656;27;20017;-81
2023/09/01 09:28:09;;;;;;;;;;;23.60;99.90;;;;;;21262117;27;19965;-82
2023/09/01 09:38:10;;;;;;;;;;;24.30;99.90;;;;;;21251617;27;20293;-81
2023/09/01 09:48:11;;;;;;;;;;;24.30;99.90;;;;;;21250033;27;20002;-81
2023/09/01 09:58:12;;;;;;;;;;;24.50;99.90;;;;;;21251069;27;20346;-81
2023/09/01 10:08:14;;;;;;;;;;;24.50;99.90;;;;;;21234053;27;19955;-81
2023/09/01 10:18:14;;;;;;;;;;;25.50;99.90;;;;;;21259305;27;19919;-82
2023/09/01 10:28:16;;;;;;;;;;;27.00;99.90;;;;;;21267658;27;19955;-82
2023/09/01 10:38:20;;;;;;;;;;;27.90;99.90;;;;;;21237218;22;19978;-78
2023/09/01 10:48:41;;;;;;;;;;;27.80;99.90;;;;;;21103546;28;19916;-78
2023/09/01 10:58:44;;;;;;;;;;;27.40;99.90;;;;;;21067349;28;19925;-78
2023/09/01 11:09:00;;;;;;;;;;;26.80;99.90;;;;;;20990178;28;19913;-77
2023/09/01 11:19:02;;;;;;;;;;;26.60;99.90;;;;;;21055659;28;19974;-77
2023/09/01 11:29:07;;;;;;;;;;;26.10;99.90;;;;;;21027704;28;19967;-78
2023/09/01 11:39:08;;;;;;;;;;;25.90;99.90;;;;;;21006514;28;19924;-77
2023/09/01 11:49:10;;;;;;;;;;;25.80;99.90;;;;;;20999762;28;19916;-78
2023/09/01 11:59:19;;;;;;;;;;;26.70;99.90;;;;;;21015720;28;19924;-77
2023/09/01 12:09:20;;;;;;;;;;;26.50;99.90;;;;;;21016950;28;19959;-78
2023/09/01 12:19:24;;;;;;;;;;;27.00;99.90;;;;;;21019336;28;20560;-77
2023/09/01 12:29:25;;;;;;;;;;;27.50;99.90;;;;;;21018563;28;19913;-78
2023/09/01 12:39:25;;;;;;;;;;;27.80;99.90;;;;;;21015469;28;19924;-78
2023/09/01 12:49:26;;;;;;;;;;;28.30;99.90;;;;;;21018386;28;19913;-79
2023/09/01 12:59:27;;;;;;;;;;;27.50;99.90;;;;;;21019389;28;20289;-77
2023/09/01 13:09:27;;;;;;;;;;;28.10;99.90;;;;;;21020029;28;19920;-78
2023/09/01 13:19:28;;;;;;;;;;;27.60;99.90;;;;;;21074218;28;19917;-77
2023/09/01 13:29:28;;;;;;;;;;;27.40;99.90;;;;;;21025997;28;19918;-78
2023/09/01 13:39:29;;;;;;;;;;;27.70;99.90;;;;;;21015108;28;20295;-79
2023/09/01 13:49:30;;;;;;;;;;;27.20;99.90;;;;;;21006012;28;19912;-78
2023/09/01 13:59:30;;;;;;;;;;;28.50;99.90;;;;;;21033111;28;19987;-79
2023/09/01 14:09:31;;;;;;;;;;;28.60;99.90;;;;;;21012266;28;19947;-79
2023/09/01 14:19:32;;;;;;;;;;;27.70;99.90;;;;;;21011944;28;19920;-77
2023/09/01 14:29:35;;;;;;;;;;;27.40;99.90;;;;;;21009663;28;19913;-78
2023/09/01 14:39:35;;;;;;;;;;;27.30;99.90;;;;;;21004916;28;19939;-78
2023/09/01 14:49:36;;;;;;;;;;;28.20;99.90;;;;;;20989018;28;19912;-78
2023/09/01 14:59:37;;;;;;;;;;;27.30;99.90;;;;;;21006569;28;19962;-78
2023/09/01 15:09:37;;;;;;;;;;;27.20;99.90;;;;;;21008105;28;19917;-79
2023/09/01 15:19:38;;;;;;;;;;;27.00;99.90;;;;;;20989939;28;20023;-78
2023/09/01 15:29:39;;;;;;;;;;;27.50;99.90;;;;;;21009889;28;19919;-78
2023/09/01 15:39:39;;;;;;;;;;;27.20;99.90;;;;;;21012788;28;20374;-78
2023/09/01 15:49:40;;;;;;;;;;;26.90;99.90;;;;;;21009592;28;19913;-79
2023/09/01 15:59:46;;;;;;;;;;;27.10;99.90;;;;;;21006536;28;19916;-79
2023/09/01 16:09:46;;;;;;;;;;;26.10;99.90;;;;;;20991542;28;19912;-78
2023/09/01 16:19:47;;;;;;;;;;;25.30;99.90;;;;;;21063219;28;19923;-78
2023/09/01 16:29:48;;;;;;;;;;;25.30;99.90;;;;;;21071578;28;19913;-78
2023/09/01 16:39:48;;;;;;;;;;;25.00;99.90;;;;;;21016137;28;19964;-77
2023/09/01 16:49:49;;;;;;;;;;;24.70;99.90;;;;;;21001633;28;19943;-76
2023/09/01 16:59:49;;;;;;;;;;;24.30;99.90;;;;;;21005609;28;20272;-78
2023/09/01 17:10:06;;;;;;;;;;;24.30;99.90;;;;;;20997052;28;19913;-76
2023/09/01 17:20:07;;;;;;;;;;;24.10;99.90;;;;;;20999420;28;19916;-77
2023/09/01 17:30:09;;;;;;;;;;;24.00;99.90;;;;;;20998721;28;19916;-77
2023/09/01 17:40:10;;;;;;;;;;;23.70;99.90;;;;;;20997260;28;19923;-77
2023/09/01 17:50:11;;;;;;;;;;;23.50;99.90;;;;;;20996602;28;19955;-77
2023/09/01 18:00:12;;;;;;;;;;;23.00;99.90;;;;;;20977589;28;19916;-77
2023/09/01 18:10:12;;;;;;;;;;;22.40;99.90;;;;;;20996034;28;19916;-77
2023/09/01 18:20:15;;;;;;;;;;;21.50;99.90;;;;;;20994145;28;19916;-77
2023/09/01 18:30:17;;;;;;;;;;;20.80;99.90;;;;;;21010095;28;19951;-76
2023/09/01 18:40:23;;;;;;;;;;;20.10;99.90;;;;;;21009140;28;20338;-76
2023/09/01 18:50:24;;;;;;;;;;;19.80;99.90;;;;;;21022101;28;19917;-76
2023/09/01 19:00:26;;;;;;;;;;;19.50;99.90;;;;;;21031748;28;20002;-76
2023/09/01 19:10:27;;;;;;;;;;;19.30;99.90;;;;;;21029709;28;19919;-75
2023/09/01 19:20:31;;;;;;;;;;;19.00;99.90;;;;;;21074810;28;20103;-76
2023/09/01 19:30:32;;;;;;;;;;;18.70;99.90;;;;;;21039364;28;19917;-76
2023/09/01 19:40:33;;;;;;;;;;;18.80;99.90;;;;;;20989623;28;19959;-75
2023/09/01 19:50:34;;;;;;;;;;;18.30;99.90;;;;;;20994514;28;19912;-76
2023/09/01 20:00:36;;;;;;;;;;;18.20;99.90;;;;;;21030925;28;19923;-75
2023/09/01 20:10:38;;;;;;;;;;;17.90;99.90;;;;;;21045595;28;19912;-76
2023/09/01 20:20:38;;;;;;;;;;;17.60;99.90;;;;;;21057974;28;20386;-76
2023/09/01 20:30:39;;;;;;;;;;;17.40;99.90;;;;;;21051164;28;19952;-75
2023/09/01 20:40:40;;;;;;;;;;;17.00;99.90;;;;;;20984203;28;20263;-75
2023/09/01 20:50:42;;;;;;;;;;;17.00;99.90;;;;;;20983402;28;19966;-76
2023/09/01 21:00:42;;;;;;;;;;;16.90;99.90;;;;;;20982470;28;19927;-76
2023/09/01 21:10:43;;;;;;;;;;;16.90;99.90;;;;;;21001072;28;20363;-76
2023/09/01 21:20:44;;;;;;;;;;;16.80;99.90;;;;;;21017981;28;19916;-76
2023/09/01 21:30:44;;;;;;;;;;;16.60;99.90;;;;;;20998297;28;19940;-76
2023/09/01 21:40:45;;;;;;;;;;;16.20;99.90;;;;;;21079454;28;19955;-76
2023/09/01 21:50:45;;;;;;;;;;;15.80;99.90;;;;;;21062546;28;19913;-76
2023/09/01 22:00:48;;;;;;;;;;;15.80;99.90;;;;;;21043355;28;19979;-76
2023/09/01 22:10:49;;;;;;;;;;;15.80;99.90;;;;;;21006435;28;19912;-75
2023/09/01 22:20:49;;;;;;;;;;;15.60;99.90;;;;;;21008993;28;19925;-76
2023/09/01 22:30:50;;;;;;;;;;;15.60;99.90;;;;;;20996460;28;19917;-79
2023/09/01 22:40:51;;;;;;;;;;;15.10;99.90;;;;;;20994801;28;19927;-78
2023/09/01 22:50:52;;;;;;;;;;;15.10;99.90;;;;;;20979473;28;19947;-78
2023/09/01 23:00:52;;;;;;;;;;;15.20;99.90;;;;;;21066751;28;19924;-78
2023/09/01 23:10:53;;;;;;;;;;;15.30;99.90;;;;;;21039162;28;20413;-78
2023/09/01 23:20:56;;;;;;;;;;;15.20;99.90;;;;;;21030024;28;19926;-78
2023/09/01 23:30:56;;;;;;;;;;;15.10;99.90;;;;;;21030172;28;19928;-74
2023/09/01 23:40:57;;;;;;;;;;;15.30;99.90;;;;;;21055011;28;20255;-74
2023/09/01 23:50:58;;;;;;;;;;;15.50;99.90;;;;;;21058254;28;19920;-74
